Time;durP1;ratioP1;P1;durP2;ratioP2;P2;SDS_P1;SDS_P2;PMS_P1;PMS_P2;Temp;Humidity;BMP_temperature;BMP_pressure;BME280_temperature;BME280_humidity;BME280_pressure;Samples;Min_cycle;Max_cycle;Signal;HPM_P1;HPM_P2
2022/08/06 00:02:26;;;;;;;1.90;1.80;;;17.20;1.00;;;;;;5088819;28;20449;-78
2022/08/06 00:04:54;;;;;;;2.87;1.37;;;17.20;1.00;;;;;;5089220;28;20456;-79
2022/08/06 00:07:25;;;;;;;5.67;2.17;;;17.20;1.00;;;;;;5076340;28;20423;-79
2022/08/06 00:09:52;;;;;;;2.57;1.90;;;17.20;1.00;;;;;;5085886;28;20462;-78
2022/08/06 00:12:23;;;;;;;3.50;1.50;;;17.20;1.00;;;;;;5085906;28;20476;-84
2022/08/06 00:14:50;;;;;;;1.97;1.50;;;17.10;1.00;;;;;;5086855;28;20482;-77
2022/08/06 00:17:23;;;;;;;2.00;1.40;;;17.10;1.00;;;;;;5080063;28;21002;-77
2022/08/06 00:19:50;;;;;;;1.47;1.30;;;17.00;1.00;;;;;;5084957;28;20517;-77
2022/08/06 00:22:16;;;;;;;1.70;1.60;;;16.90;1.00;;;;;;5080681;28;20546;-79
2022/08/06 00:24:46;;;;;;;3.33;1.60;;;16.90;1.00;;;;;;5085429;28;20450;-79
2022/08/06 00:27:13;;;;;;;1.67;1.50;;;16.90;1.00;;;;;;5088094;28;21175;-77
2022/08/06 00:29:40;;;;;;;2.23;1.77;;;16.90;1.00;;;;;;5087086;28;20628;-77
2022/08/06 00:32:10;;;;;;;3.63;1.90;;;16.90;1.00;;;;;;5090204;28;21162;-81
2022/08/06 00:34:39;;;;;;;2.40;1.77;;;16.80;1.00;;;;;;5086071;28;20451;-76
2022/08/06 00:37:06;;;;;;;1.70;1.50;;;16.70;1.00;;;;;;5085670;28;20489;-78
2022/08/06 00:39:33;;;;;;;2.10;1.63;;;16.70;1.00;;;;;;5089862;28;20419;-79
2022/08/06 00:42:02;;;;;;;3.37;1.30;;;16.60;1.00;;;;;;5077966;28;20466;-77
2022/08/06 00:44:35;;;;;;;2.00;1.80;;;16.60;1.00;;;;;;5082526;28;20491;-78
2022/08/06 00:47:02;;;;;;;2.00;1.90;;;16.50;1.00;;;;;;5085764;28;20492;-77
2022/08/06 00:49:33;;;;;;;2.17;1.43;;;16.50;1.00;;;;;;5086503;28;20421;-79
2022/08/06 00:52:00;;;;;;;2.20;1.60;;;16.50;1.00;;;;;;5087916;28;20478;-80
2022/08/06 00:54:26;;;;;;;2.27;1.30;;;16.50;1.00;;;;;;5088431;28;20853;-78
2022/08/06 00:56:54;;;;;;;3.47;1.60;;;16.50;1.00;;;;;;5088329;28;20430;-81
2022/08/06 00:59:24;;;;;;;5.20;1.70;;;16.50;1.00;;;;;;5084283;28;20410;-77
2022/08/06 01:01:50;;;;;;;1.80;1.50;;;16.40;1.00;;;;;;5081697;28;20466;-82
2022/08/06 01:04:22;;;;;;;1.87;1.57;;;16.40;1.00;;;;;;5087051;28;20475;-81
2022/08/06 01:06:49;;;;;;;1.73;1.57;;;16.40;1.00;;;;;;5087551;28;20491;-78
2022/08/06 01:09:25;;;;;;;1.90;1.50;;;16.30;1.00;;;;;;5089590;28;20451;-78
2022/08/06 01:11:52;;;;;;;2.20;1.73;;;16.30;1.00;;;;;;5088231;28;20462;-82
2022/08/06 01:14:25;;;;;;;1.20;1.10;;;16.20;1.00;;;;;;5084080;28;20454;-77
2022/08/06 01:17:02;;;;;;;2.30;1.40;;;16.20;1.00;;;;;;5085125;28;20930;-78
2022/08/06 01:19:48;;;;;;;3.40;1.10;;;16.20;1.00;;;;;;5086554;28;20460;-76
2022/08/06 01:22:31;;;;;;;1.67;1.13;;;16.20;1.00;;;;;;5082120;28;20481;-82
2022/08/06 01:25:22;;;;;;;1.40;1.30;;;16.10;1.00;;;;;;5085827;28;20482;-78
2022/08/06 01:27:56;;;;;;;1.37;1.10;;;16.10;1.00;;;;;;5087650;28;20545;-82
2022/08/06 01:30:30;;;;;;;3.03;1.30;;;16.00;1.00;;;;;;5085223;28;20434;-77
2022/08/06 01:33:06;;;;;;;1.13;1.03;;;16.00;1.00;;;;;;5083940;28;20474;-78
2022/08/06 01:35:50;;;;;;;2.53;1.30;;;16.00;1.00;;;;;;5083132;28;20456;-78
2022/08/06 01:38:26;;;;;;;2.23;1.30;;;15.90;1.00;;;;;;5086840;28;20958;-78
2022/08/06 01:40:55;;;;;;;1.57;1.37;;;15.90;1.00;;;;;;5087063;28;20845;-82
2022/08/06 01:43:29;;;;;;;2.23;1.50;;;15.90;1.00;;;;;;5090788;28;20434;-81
2022/08/06 01:45:58;;;;;;;1.80;1.37;;;15.90;1.00;;;;;;5085344;28;20458;-78
2022/08/06 01:48:27;;;;;;;1.50;1.10;;;15.90;1.00;;;;;;5086017;28;20932;-78
2022/08/06 01:51:02;;;;;;;2.17;1.40;;;15.80;1.00;;;;;;5088728;28;21026;-82
2022/08/06 01:53:32;;;;;;;2.80;1.50;;;15.80;1.00;;;;;;5087105;28;21257;-82
2022/08/06 01:56:02;;;;;;;2.60;1.57;;;15.90;1.00;;;;;;5081220;28;20546;-79
2022/08/06 01:58:35;;;;;;;4.97;1.30;;;15.80;1.00;;;;;;5088159;28;20474;-82
2022/08/06 02:01:08;;;;;;;1.60;1.10;;;15.80;1.00;;;;;;5088188;28;21268;-81
2022/08/06 02:03:43;;;;;;;1.30;1.20;;;15.80;1.00;;;;;;5089898;28;20463;-77
2022/08/06 02:06:13;;;;;;;2.70;1.10;;;15.80;1.00;;;;;;5093005;28;21324;-78
2022/08/06 02:08:45;;;;;;;2.10;1.67;;;15.80;1.00;;;;;;5087173;28;20416;-77
2022/08/06 02:11:12;;;;;;;2.00;1.33;;;15.70;1.00;;;;;;5091982;28;20458;-80
2022/08/06 02:13:46;;;;;;;1.47;1.33;;;15.70;1.00;;;;;;5091541;28;20431;-79
2022/08/06 02:16:15;;;;;;;2.33;1.63;;;15.60;1.00;;;;;;5092490;28;21340;-82
2022/08/06 02:18:48;;;;;;;2.37;1.50;;;15.60;1.00;;;;;;5092593;28;20557;-82
2022/08/06 02:21:22;;;;;;;2.77;1.70;;;15.50;1.00;;;;;;5085185;28;20925;-78
2022/08/06 02:23:52;;;;;;;1.60;1.30;;;15.60;1.00;;;;;;5091133;28;20523;-83
2022/08/06 02:26:26;;;;;;;1.63;1.23;;;15.50;1.00;;;;;;5089043;28;20418;-81
2022/08/06 02:28:56;;;;;;;1.77;1.43;;;15.50;1.00;;;;;;5090974;28;20550;-76
2022/08/06 02:31:24;;;;;;;1.67;1.13;;;15.50;1.00;;;;;;5089749;28;20394;-83
2022/08/06 02:33:53;;;;;;;1.53;1.30;;;15.50;1.00;;;;;;5091573;28;20477;-82
2022/08/06 02:36:30;;;;;;;1.60;1.50;;;15.50;1.00;;;;;;5073056;28;20491;-81
2022/08/06 02:39:06;;;;;;;1.87;1.47;;;15.40;1.00;;;;;;5091878;28;20458;-82
2022/08/06 02:41:43;;;;;;;3.43;1.40;;;15.40;1.00;;;;;;5093267;28;20469;-83
2022/08/06 02:44:17;;;;;;;1.80;1.33;;;15.30;1.00;;;;;;5094120;28;20470;-81
2022/08/06 02:46:53;;;;;;;1.67;1.30;;;15.40;1.00;;;;;;5096892;28;20451;-81
2022/08/06 02:49:27;;;;;;;1.63;1.40;;;15.40;1.00;;;;;;5091097;28;20414;-79
2022/08/06 02:52:04;;;;;;;1.53;1.33;;;15.40;1.00;;;;;;5093610;28;20458;-83
2022/08/06 02:54:43;;;;;;;2.80;1.43;;;15.30;1.00;;;;;;5092182;28;20455;-82
2022/08/06 02:57:17;;;;;;;1.50;1.10;;;15.30;1.00;;;;;;5092049;28;20473;-82
2022/08/06 02:59:53;;;;;;;1.73;1.20;;;15.30;1.00;;;;;;5088306;28;20486;-82
2022/08/06 03:02:31;;;;;;;1.80;1.10;;;15.20;1.00;;;;;;5087019;28;20406;-78
2022/08/06 03:05:05;;;;;;;1.50;1.20;;;15.20;1.00;;;;;;5088122;28;20910;-79
2022/08/06 03:07:34;;;;;;;3.03;1.30;;;15.20;1.00;;;;;;5089736;28;20446;-83
2022/08/06 03:10:09;;;;;;;2.77;1.33;;;15.10;1.00;;;;;;5089090;28;20440;-82
2022/08/06 03:12:39;;;;;;;1.67;1.07;;;15.10;1.00;;;;;;5088792;28;20454;-83
2022/08/06 03:15:09;;;;;;;1.80;1.33;;;15.10;1.00;;;;;;5091310;28;20590;-82
2022/08/06 03:17:39;;;;;;;2.07;1.40;;;15.10;1.00;;;;;;5089364;28;20462;-78
2022/08/06 03:20:08;;;;;;;1.33;1.23;;;15.00;1.00;;;;;;5088518;28;20607;-81
2022/08/06 03:22:39;;;;;;;1.30;1.20;;;15.00;1.00;;;;;;5090792;28;20842;-81
2022/08/06 03:25:08;;;;;;;1.70;1.23;;;15.00;1.00;;;;;;5091027;28;20959;-79
2022/08/06 03:27:37;;;;;;;1.23;1.13;;;15.00;1.00;;;;;;5092916;28;20475;-82
2022/08/06 03:30:05;;;;;;;3.73;1.43;;;15.00;1.00;;;;;;5091110;28;20457;-82
2022/08/06 03:32:34;;;;;;;2.57;1.20;;;15.00;1.00;;;;;;5092596;28;21197;-81
2022/08/06 03:35:04;;;;;;;1.43;1.27;;;15.00;1.00;;;;;;5089851;28;20462;-83
2022/08/06 03:37:32;;;;;;;3.20;1.40;;;15.00;1.00;;;;;;5090399;28;21293;-76
2022/08/06 03:40:05;;;;;;;1.40;1.20;;;15.00;1.00;;;;;;5091135;28;20427;-83
2022/08/06 03:42:32;;;;;;;2.13;1.30;;;14.90;1.00;;;;;;5098423;28;20450;-82
2022/08/06 03:45:06;;;;;;;2.20;1.63;;;15.00;1.00;;;;;;5090664;28;20438;-77
2022/08/06 03:47:44;;;;;;;2.50;1.70;;;14.90;1.00;;;;;;5091520;28;20457;-83
2022/08/06 03:50:16;;;;;;;1.47;1.37;;;14.90;1.00;;;;;;5090218;28;20596;-81
2022/08/06 03:52:47;;;;;;;3.00;1.10;;;14.90;1.00;;;;;;5089485;28;20453;-82
2022/08/06 03:55:24;;;;;;;1.93;1.30;;;14.90;1.00;;;;;;5090882;28;20550;-77
2022/08/06 03:57:53;;;;;;;3.03;1.20;;;14.80;1.00;;;;;;5092490;28;20458;-79
2022/08/06 04:00:27;;;;;;;3.20;1.43;;;14.80;1.00;;;;;;5089934;28;20488;-77
2022/08/06 04:03:03;;;;;;;2.47;1.33;;;14.80;1.00;;;;;;5085327;28;21151;-82
2022/08/06 04:05:31;;;;;;;2.23;1.20;;;14.80;1.00;;;;;;5074844;28;20562;-78
2022/08/06 04:08:04;;;;;;;4.20;1.40;;;14.80;1.00;;;;;;5084171;28;20461;-77
2022/08/06 04:10:37;;;;;;;1.67;1.47;;;14.80;1.00;;;;;;5082817;28;20457;-77
2022/08/06 04:13:07;;;;;;;1.80;1.27;;;14.90;1.00;;;;;;5087097;28;20414;-76
2022/08/06 04:15:35;;;;;;;1.90;1.77;;;14.90;1.00;;;;;;5085658;28;20444;-78
2022/08/06 04:18:14;;;;;;;2.03;1.30;;;14.90;1.00;;;;;;5087818;28;20466;-78
2022/08/06 04:20:47;;;;;;;2.30;1.20;;;14.90;1.00;;;;;;5087888;28;20426;-84
2022/08/06 04:23:15;;;;;;;1.30;1.20;;;14.90;1.00;;;;;;5085477;28;20474;-79
2022/08/06 04:25:48;;;;;;;1.50;1.30;;;14.80;1.00;;;;;;5088465;28;20441;-79
2022/08/06 04:28:17;;;;;;;2.50;1.70;;;14.90;1.00;;;;;;5087276;28;20462;-84
2022/08/06 04:30:47;;;;;;;1.80;1.50;;;14.90;1.00;;;;;;5086490;28;20430;-79
2022/08/06 04:33:18;;;;;;;2.47;1.00;;;14.90;1.00;;;;;;5084843;28;20516;-77
2022/08/06 04:35:49;;;;;;;4.63;2.37;;;14.90;1.00;;;;;;5085571;28;20423;-81
2022/08/06 04:38:18;;;;;;;2.40;1.63;;;14.90;1.00;;;;;;5085231;28;20974;-76
2022/08/06 04:40:49;;;;;;;2.20;1.40;;;15.00;1.00;;;;;;5086777;28;20450;-81
2022/08/06 04:43:16;;;;;;;3.03;1.50;;;15.00;1.00;;;;;;5090615;28;20451;-77
2022/08/06 04:45:47;;;;;;;3.50;1.00;;;15.00;1.00;;;;;;5084970;28;20860;-78
2022/08/06 04:48:17;;;;;;;3.33;1.47;;;15.10;1.00;;;;;;5090418;28;20518;-79
2022/08/06 04:50:46;;;;;;;2.43;1.60;;;15.10;1.00;;;;;;5092283;28;20424;-78
2022/08/06 04:53:18;;;;;;;2.60;1.10;;;15.10;1.00;;;;;;5088689;28;20437;-82
2022/08/06 04:55:47;;;;;;;1.33;1.23;;;15.10;1.00;;;;;;5088022;28;20522;-79
2022/08/06 04:58:16;;;;;;;1.53;1.10;;;15.10;1.00;;;;;;5084101;28;20460;-77
2022/08/06 05:00:50;;;;;;;2.73;1.50;;;15.20;1.00;;;;;;5087438;28;20459;-77
2022/08/06 05:03:19;;;;;;;3.17;1.80;;;15.20;1.00;;;;;;5088078;27;20489;-80
2022/08/06 05:05:53;;;;;;;1.67;1.30;;;15.20;1.00;;;;;;5093243;28;20445;-81
2022/08/06 05:08:28;;;;;;;5.33;1.50;;;15.20;1.00;;;;;;5087509;28;20457;-83
2022/08/06 05:11:06;;;;;;;2.93;1.30;;;15.20;1.00;;;;;;5085312;28;20490;-84
2022/08/06 05:13:37;;;;;;;1.93;1.10;;;15.20;1.00;;;;;;5092525;28;20520;-84
2022/08/06 05:16:12;;;;;;;1.90;1.00;;;15.20;1.00;;;;;;5086985;28;20443;-81
2022/08/06 05:18:50;;;;;;;2.50;1.50;;;15.20;1.00;;;;;;5091603;28;20501;-83
2022/08/06 05:21:24;;;;;;;3.70;1.83;;;15.20;1.00;;;;;;5091355;28;20469;-81
2022/08/06 05:23:56;;;;;;;1.37;1.13;;;15.10;1.00;;;;;;5087855;28;20525;-83
2022/08/06 05:26:23;;;;;;;3.70;2.73;;;15.20;1.00;;;;;;5090400;28;20430;-83
2022/08/06 05:28:52;;;;;;;3.03;1.50;;;15.20;1.00;;;;;;5085491;28;20538;-82
2022/08/06 05:31:29;;;;;;;2.17;1.63;;;15.20;1.00;;;;;;5086486;28;20641;-83
2022/08/06 05:33:58;;;;;;;2.17;1.60;;;15.10;1.00;;;;;;5080554;28;20549;-83
2022/08/06 05:36:27;;;;;;;3.73;1.60;;;15.20;1.00;;;;;;5086181;28;20447;-81
2022/08/06 05:38:54;;;;;;;4.03;1.97;;;15.10;1.00;;;;;;5086795;28;20464;-83
2022/08/06 05:41:24;;;;;;;1.90;1.77;;;15.10;1.00;;;;;;5090026;28;20450;-83
2022/08/06 05:43:51;;;;;;;3.47;1.53;;;15.20;1.00;;;;;;5093033;28;20462;-83
2022/08/06 05:46:24;;;;;;;3.87;1.60;;;15.20;1.00;;;;;;5092062;28;22059;-83
2022/08/06 05:49:12;;;;;;;2.60;1.40;;;15.20;1.00;;;;;;5095040;28;20503;-79
2022/08/06 05:51:53;;;;;;;2.23;1.80;;;15.20;1.00;;;;;;5095439;28;20424;-76
2022/08/06 05:54:36;;;;;;;2.90;1.50;;;15.20;1.00;;;;;;5088107;28;20546;-78
2022/08/06 05:57:11;;;;;;;3.13;1.80;;;15.30;1.00;;;;;;5090535;28;20478;-82
2022/08/06 05:59:47;;;;;;;2.47;1.50;;;15.40;1.00;;;;;;5093900;28;20548;-83
2022/08/06 06:02:15;;;;;;;2.40;1.43;;;15.40;1.00;;;;;;5096368;28;20912;-81
2022/08/06 06:04:46;;;;;;;2.23;1.70;;;15.40;1.00;;;;;;5088732;28;20420;-77
2022/08/06 06:07:15;;;;;;;2.10;1.50;;;15.50;1.00;;;;;;5089415;28;21647;-81
2022/08/06 06:09:45;;;;;;;4.60;1.67;;;15.50;1.00;;;;;;5088604;28;20450;-78
2022/08/06 06:12:13;;;;;;;3.73;2.00;;;15.60;1.00;;;;;;5087210;28;22714;-81
2022/08/06 06:14:47;;;;;;;3.20;1.57;;;15.70;1.00;;;;;;5089141;28;20558;-82
2022/08/06 06:17:34;;;;;;;2.73;1.70;;;15.80;1.00;;;;;;5088039;28;21566;-81
2022/08/06 06:20:17;;;;;;;1.57;1.37;;;15.90;1.00;;;;;;5080623;28;20494;-83
2022/08/06 06:22:56;;;;;;;3.33;1.67;;;16.10;1.00;;;;;;5083237;28;20509;-78
2022/08/06 06:25:29;;;;;;;2.00;1.80;;;16.30;1.00;;;;;;5091760;28;20407;-82
2022/08/06 06:28:07;;;;;;;2.87;1.87;;;16.40;1.00;;;;;;5086743;28;20839;-78
2022/08/06 06:30:44;;;;;;;3.63;2.00;;;16.50;1.00;;;;;;5084873;28;20461;-81
2022/08/06 06:33:20;;;;;;;3.33;1.60;;;16.50;1.00;;;;;;5086581;28;20462;-81
2022/08/06 06:35:54;;;;;;;4.17;1.83;;;16.50;1.00;;;;;;5090883;28;20978;-82
2022/08/06 06:38:38;;;;;;;3.00;1.80;;;16.60;1.00;;;;;;5086069;28;20470;-83
2022/08/06 06:41:11;;;;;;;1.83;1.60;;;16.70;1.00;;;;;;5087246;28;20455;-82
2022/08/06 06:43:47;;;;;;;9.10;2.33;;;16.70;1.00;;;;;;5084523;28;20513;-77
2022/08/06 06:46:25;;;;;;;2.13;1.80;;;16.80;1.00;;;;;;5085861;28;20501;-79
2022/08/06 06:48:57;;;;;;;3.23;2.00;;;17.00;1.00;;;;;;5088736;28;20482;-82
2022/08/06 06:51:28;;;;;;;2.37;1.80;;;17.00;1.00;;;;;;5091512;28;20495;-80
2022/08/06 06:53:57;;;;;;;2.47;1.80;;;17.10;1.00;;;;;;5086837;28;20549;-78
2022/08/06 06:56:29;;;;;;;3.90;3.60;;;17.30;1.00;;;;;;5089792;28;20483;-77
2022/08/06 06:59:05;;;;;;;1.87;1.17;;;17.40;1.00;;;;;;5088494;28;20482;-77
2022/08/06 07:01:33;;;;;;;2.60;1.80;;;17.50;1.00;;;;;;5089593;28;20961;-82
2022/08/06 07:04:03;;;;;;;2.03;1.50;;;17.50;1.00;;;;;;5085211;28;20427;-81
2022/08/06 07:06:32;;;;;;;2.00;1.60;;;17.50;1.00;;;;;;5080815;28;20496;-76
2022/08/06 07:09:05;;;;;;;3.00;1.50;;;17.50;1.00;;;;;;5095005;28;20472;-78
2022/08/06 07:11:36;;;;;;;3.60;1.70;;;17.50;1.00;;;;;;5087766;28;20457;-79
2022/08/06 07:14:05;;;;;;;2.53;1.50;;;17.50;1.00;;;;;;5087637;28;20445;-78
2022/08/06 07:16:33;;;;;;;3.07;1.70;;;17.60;1.00;;;;;;5084689;28;20852;-82
2022/08/06 07:19:06;;;;;;;2.57;2.13;;;17.60;1.00;;;;;;5085414;28;20423;-78
2022/08/06 07:21:43;;;;;;;2.93;1.90;;;17.80;1.00;;;;;;5085818;28;20486;-82
2022/08/06 07:24:13;;;;;;;2.90;1.83;;;17.90;1.00;;;;;;5086482;28;20478;-82
2022/08/06 07:26:44;;;;;;;3.30;2.03;;;17.90;1.00;;;;;;5091414;28;20506;-82
2022/08/06 07:29:13;;;;;;;2.30;1.73;;;18.00;1.00;;;;;;5088333;28;20477;-81
2022/08/06 07:31:45;;;;;;;1.80;1.27;;;18.10;1.00;;;;;;5089271;28;20415;-81
2022/08/06 07:34:13;;;;;;;8.27;4.30;;;18.30;1.00;;;;;;5087536;28;20463;-77
2022/08/06 07:36:48;;;;;;;1.73;1.40;;;18.40;1.00;;;;;;5091041;28;20481;-81
2022/08/06 07:39:25;;;;;;;2.17;1.47;;;18.50;1.00;;;;;;5090327;28;20536;-78
2022/08/06 07:41:57;;;;;;;2.40;1.80;;;18.50;1.00;;;;;;5091631;28;20455;-81
2022/08/06 07:44:28;;;;;;;2.23;1.00;;;18.60;1.00;;;;;;5087545;28;20616;-78
2022/08/06 07:47:04;;;;;;;1.87;1.40;;;19.00;1.00;;;;;;5087397;28;20466;-79
2022/08/06 07:49:44;;;;;;;1.20;1.10;;;19.30;1.00;;;;;;5084906;28;20462;-82
2022/08/06 07:52:15;;;;;;;1.40;0.90;;;19.50;1.00;;;;;;5090211;28;20869;-81
2022/08/06 07:54:50;;;;;;;2.60;1.50;;;19.50;1.00;;;;;;5088235;28;20425;-78
2022/08/06 07:57:28;;;;;;;2.20;1.20;;;19.60;1.00;;;;;;5088564;28;20537;-78
2022/08/06 07:59:55;;;;;;;4.67;1.30;;;19.80;1.00;;;;;;5084407;28;20517;-84
2022/08/06 08:02:25;;;;;;;1.53;1.10;;;20.10;1.00;;;;;;5087439;28;20416;-84
2022/08/06 08:07:41;;;;;;;1.97;1.03;;;20.60;1.00;;;;;;5084744;28;20442;-78
2022/08/06 08:10:15;;;;;;;1.50;0.97;;;20.90;1.00;;;;;;5083007;28;20953;-83
2022/08/06 08:12:45;;;;;;;1.20;0.80;;;21.10;1.00;;;;;;5087994;28;20884;-77
2022/08/06 08:15:15;;;;;;;1.60;1.10;;;21.40;1.00;;;;;;5090456;28;20403;-84
2022/08/06 08:17:45;;;;;;;4.80;1.17;;;21.50;1.00;;;;;;5088410;28;20482;-79
2022/08/06 08:20:15;;;;;;;1.53;0.97;;;21.40;1.00;;;;;;5087522;28;20466;-79
2022/08/06 08:22:42;;;;;;;1.87;0.90;;;21.40;1.00;;;;;;5086984;28;20553;-79
2022/08/06 08:25:14;;;;;;;2.53;1.33;;;21.20;1.00;;;;;;5081226;28;20470;-79
2022/08/06 08:27:41;;;;;;;1.43;1.23;;;21.10;1.00;;;;;;5087631;28;20464;-77
2022/08/06 08:30:14;;;;;;;1.60;1.00;;;20.90;1.00;;;;;;5086860;28;20989;-77
2022/08/06 08:32:45;;;;;;;3.60;1.50;;;21.20;1.00;;;;;;5085530;28;20486;-82
2022/08/06 08:35:15;;;;;;;1.53;1.03;;;21.20;1.00;;;;;;5084926;28;20486;-79
2022/08/06 08:37:44;;;;;;;2.13;1.40;;;21.20;1.00;;;;;;5084938;28;20422;-77
2022/08/06 08:40:13;;;;;;;1.10;1.00;;;21.40;1.00;;;;;;5087029;28;20470;-76
2022/08/06 08:42:46;;;;;;;2.57;1.27;;;21.70;1.00;;;;;;5089046;28;20472;-80
2022/08/06 08:45:14;;;;;;;1.60;1.10;;;21.90;1.00;;;;;;5089127;28;20482;-80
2022/08/06 08:47:47;;;;;;;2.90;0.83;;;21.90;1.00;;;;;;5089925;28;20403;-79
2022/08/06 08:50:14;;;;;;;1.00;0.90;;;22.00;1.00;;;;;;5077168;28;20591;-80
2022/08/06 08:52:48;;;;;;;1.60;1.00;;;22.00;1.00;;;;;;5091613;28;20438;-81
2022/08/06 08:55:22;;;;;;;1.03;0.93;;;21.80;1.00;;;;;;5089326;28;20534;-80
2022/08/06 08:57:52;;;;;;;1.20;1.10;;;21.60;1.00;;;;;;5088709;28;20426;-81
2022/08/06 09:00:23;;;;;;;1.20;0.90;;;21.40;1.00;;;;;;5088639;28;20454;-80
2022/08/06 09:02:50;;;;;;;2.50;1.27;;;21.50;1.00;;;;;;5088822;28;20462;-80
2022/08/06 09:05:17;;;;;;;3.00;1.77;;;21.70;1.00;;;;;;5089253;28;20498;-79
2022/08/06 09:07:45;;;;;;;1.63;1.00;;;22.10;1.00;;;;;;5089764;28;20508;-80
2022/08/06 09:10:12;;;;;;;2.03;1.07;;;22.30;1.00;;;;;;5089946;28;20464;-82
2022/08/06 09:12:47;;;;;;;2.50;0.70;;;22.30;1.00;;;;;;5094523;28;20533;-80
2022/08/06 09:15:17;;;;;;;0.80;0.70;;;22.40;1.00;;;;;;5094343;28;20508;-83
2022/08/06 09:17:49;;;;;;;1.47;1.00;;;22.30;1.00;;;;;;5088984;28;20427;-76
2022/08/06 09:20:16;;;;;;;1.20;0.87;;;22.30;1.00;;;;;;5095506;28;20501;-81
2022/08/06 09:22:46;;;;;;;3.33;1.30;;;22.20;1.00;;;;;;5092827;28;20482;-77
2022/08/06 09:25:46;;;;;;;1.97;1.40;;;22.40;1.00;;;;;;5089913;28;20481;-82
2022/08/06 09:28:34;;;;;;;1.77;0.90;;;22.80;1.00;;;;;;5094560;28;20458;-81
2022/08/06 09:31:04;;;;;;;1.07;0.70;;;23.30;1.00;;;;;;5092420;28;20448;-81
2022/08/06 09:33:37;;;;;;;1.77;0.70;;;23.70;1.00;;;;;;5093816;28;20463;-80
2022/08/06 09:36:07;;;;;;;1.97;1.00;;;24.20;1.00;;;;;;5092635;28;20475;-81
2022/08/06 09:38:47;;;;;;;1.90;1.30;;;25.20;1.00;;;;;;5092944;28;20487;-83
2022/08/06 09:41:14;;;;;;;1.10;0.90;;;26.70;1.00;;;;;;5087367;28;20458;-81
2022/08/06 09:43:46;;;;;;;1.07;0.80;;;26.70;1.00;;;;;;5092474;28;20512;-82
2022/08/06 09:46:13;;;;;;;1.60;0.90;;;25.80;1.00;;;;;;5090402;28;20445;-82
2022/08/06 09:49:00;;;;;;;1.10;0.60;;;25.10;1.00;;;;;;5093518;28;20443;-81
2022/08/06 09:51:30;;;;;;;3.47;1.20;;;24.50;1.00;;;;;;5097442;28;20458;-80
2022/08/06 09:54:01;;;;;;;1.50;0.80;;;24.30;1.00;;;;;;5090678;28;20451;-80
2022/08/06 09:56:29;;;;;;;2.17;0.93;;;24.90;1.00;;;;;;5091047;28;20459;-80
2022/08/06 09:59:00;;;;;;;2.93;0.90;;;24.90;1.00;;;;;;5090093;28;20530;-77
2022/08/06 10:01:30;;;;;;;2.83;1.50;;;24.50;1.00;;;;;;5088595;28;20513;-80
2022/08/06 10:03:58;;;;;;;1.10;0.90;;;24.30;1.00;;;;;;5092084;28;20471;-80
2022/08/06 10:06:25;;;;;;;1.80;0.80;;;24.90;1.00;;;;;;5096663;28;20486;-79
2022/08/06 10:09:09;;;;;;;2.07;0.63;;;26.80;1.00;;;;;;5097154;28;20475;-81
2022/08/06 10:11:39;;;;;;;3.30;0.83;;;29.10;1.00;;;;;;5094952;28;20474;-82
2022/08/06 10:14:21;;;;;;;1.10;0.77;;;30.50;1.00;;;;;;5087643;28;20462;-80
2022/08/06 10:17:04;;;;;;;1.83;1.60;;;30.40;1.00;;;;;;5090009;28;20459;-77
2022/08/06 10:19:35;;;;;;;1.20;1.07;;;29.20;1.00;;;;;;5086219;28;20475;-82
2022/08/06 10:22:07;;;;;;;2.77;1.40;;;28.00;1.00;;;;;;5092036;28;20467;-79
2022/08/06 10:24:39;;;;;;;2.57;1.10;;;28.60;1.00;;;;;;5103969;28;20431;-85
2022/08/06 10:27:08;;;;;;;1.70;1.10;;;29.20;1.00;;;;;;5098989;28;20590;-80
2022/08/06 10:29:43;;;;;;;1.57;1.00;;;28.40;1.00;;;;;;5092777;28;20541;-79
2022/08/06 10:32:17;;;;;;;1.27;0.83;;;27.50;1.00;;;;;;5097082;28;20509;-84
2022/08/06 10:34:48;;;;;;;1.97;0.90;;;26.70;1.00;;;;;;5091535;28;20462;-79
2022/08/06 10:37:18;;;;;;;0.90;0.77;;;26.00;1.00;;;;;;5089281;28;20536;-80
2022/08/06 10:39:57;;;;;;;1.23;0.80;;;26.30;1.00;;;;;;5094472;28;20418;-83
2022/08/06 10:42:24;;;;;;;2.00;1.30;;;28.00;1.00;;;;;;5087545;28;20556;-83
2022/08/06 10:44:58;;;;;;;1.50;1.13;;;28.10;1.00;;;;;;5091850;28;20477;-80
2022/08/06 10:47:37;;;;;;;1.53;0.80;;;28.40;1.00;;;;;;5090934;28;20499;-77
2022/08/06 10:50:05;;;;;;;2.93;1.70;;;28.00;1.00;;;;;;5091069;28;20450;-80
2022/08/06 10:52:36;;;;;;;1.50;1.20;;;27.30;1.00;;;;;;5098549;28;20419;-75
2022/08/06 10:55:05;;;;;;;1.47;0.80;;;26.60;1.00;;;;;;5084741;28;20530;-81
2022/08/06 10:57:35;;;;;;;1.10;0.80;;;26.10;1.00;;;;;;5094037;28;20461;-82
2022/08/06 11:00:07;;;;;;;2.07;1.00;;;27.00;1.00;;;;;;5096851;28;21249;-78
2022/08/06 11:02:55;;;;;;;1.40;0.90;;;29.20;1.00;;;;;;5092244;28;20581;-81
2022/08/06 11:05:26;;;;;;;1.47;0.93;;;31.20;1.00;;;;;;5093910;28;20446;-80
2022/08/06 11:08:37;;;;;;;3.80;1.40;;;33.30;1.00;;;;;;5098914;28;20628;-82
2022/08/06 11:11:34;;;;;;;1.80;1.13;;;33.20;1.00;;;;;;5095969;28;20454;-81
2022/08/06 11:14:08;;;;;;;1.63;0.80;;;31.20;1.00;;;;;;5067235;28;20473;-80
2022/08/06 11:16:38;;;;;;;1.13;0.67;;;29.60;1.00;;;;;;5096004;28;20427;-84
2022/08/06 11:19:07;;;;;;;1.60;0.80;;;28.60;1.00;;;;;;5098445;28;20482;-84
2022/08/06 11:21:40;;;;;;;0.90;0.70;;;29.20;1.00;;;;;;5095538;28;20438;-77
2022/08/06 11:24:07;;;;;;;1.63;0.80;;;31.40;1.00;;;;;;5087418;28;20549;-85
2022/08/06 11:26:37;;;;;;;1.23;0.60;;;33.30;1.00;;;;;;5094372;28;20423;-83
2022/08/06 11:29:06;;;;;;;1.57;1.03;;;34.80;1.00;;;;;;5102056;28;20489;-85
2022/08/06 11:31:46;;;;;;;1.43;0.73;;;35.20;1.00;;;;;;5097487;28;20438;-78
2022/08/06 11:34:16;;;;;;;1.23;0.70;;;33.60;1.00;;;;;;5084441;28;20466;-77
2022/08/06 11:36:46;;;;;;;1.67;0.80;;;31.50;1.00;;;;;;5080813;28;20453;-77
2022/08/06 11:39:20;;;;;;;1.13;0.97;;;29.80;1.00;;;;;;5083934;28;20435;-76
2022/08/06 11:41:57;;;;;;;1.63;1.40;;;28.50;1.00;;;;;;5093205;28;20454;-75
2022/08/06 11:44:26;;;;;;;1.67;1.10;;;27.80;1.00;;;;;;5094667;28;20506;-82
2022/08/06 11:47:18;;;;;;;1.20;0.90;;;29.50;1.00;;;;;;5092750;28;20483;-79
2022/08/06 11:49:51;;;;;;;1.57;0.80;;;32.00;1.00;;;;;;5090166;28;20561;-85
2022/08/06 11:52:41;;;;;;;1.10;0.90;;;33.30;1.00;;;;;;5085982;28;20420;-82
2022/08/06 11:55:13;;;;;;;2.53;0.87;;;34.40;1.00;;;;;;5093592;28;21047;-82
2022/08/06 11:57:41;;;;;;;1.13;0.80;;;35.00;1.00;;;;;;5088806;28;21009;-80
2022/08/06 12:00:23;;;;;;;2.43;0.97;;;35.70;1.00;;;;;;5095606;28;20520;-84
2022/08/06 12:02:58;;;;;;;1.57;0.70;;;36.30;1.00;;;;;;5088758;28;20501;-77
2022/08/06 12:05:42;;;;;;;1.10;0.60;;;37.00;1.00;;;;;;5090906;28;20418;-78
2022/08/06 12:08:24;;;;;;;1.20;0.53;;;37.30;1.00;;;;;;5089449;28;20451;-81
2022/08/06 12:11:27;;;;;;;1.77;0.80;;;37.70;1.00;;;;;;5085808;28;20455;-81
2022/08/06 12:13:56;;;;;;;1.37;0.57;;;38.30;1.00;;;;;;5088993;28;20414;-82
2022/08/06 12:16:40;;;;;;;1.10;0.70;;;38.80;1.00;;;;;;5087771;28;21367;-84
2022/08/06 12:19:15;;;;;;;1.70;0.70;;;39.20;1.00;;;;;;5094095;28;20503;-81
2022/08/06 12:21:44;;;;;;;1.97;0.83;;;37.90;1.00;;;;;;5082865;28;20442;-83
2022/08/06 12:24:12;;;;;;;1.83;0.77;;;35.60;1.00;;;;;;5083562;28;20454;-76
2022/08/06 12:26:42;;;;;;;1.00;0.57;;;35.60;1.00;;;;;;5087148;28;20470;-80
2022/08/06 12:29:09;;;;;;;1.90;0.87;;;35.30;1.00;;;;;;5080721;28;20450;-78
2022/08/06 12:31:44;;;;;;;2.37;1.50;;;35.10;1.00;;;;;;5088752;28;20565;-80
2022/08/06 12:34:27;;;;;;;1.57;1.27;;;35.20;1.00;;;;;;5079840;28;20427;-77
2022/08/06 12:36:58;;;;;;;1.17;0.70;;;36.60;1.00;;;;;;5079518;28;20434;-78
2022/08/06 12:40:23;;;;;;;1.80;1.70;;;36.70;1.00;;;;;;5083538;28;20450;-84
2022/08/06 12:42:28;;;;;;;2.10;1.90;;;35.60;1.00;;;;;;5083331;28;20553;-77
2022/08/06 12:44:56;;;;;;;1.87;0.80;;;34.40;1.00;;;;;;5090272;28;20423;-81
2022/08/06 12:47:25;;;;;;;2.80;1.13;;;33.20;1.00;;;;;;5092022;28;20523;-82
2022/08/06 12:49:57;;;;;;;3.50;1.23;;;32.00;1.00;;;;;;5092872;28;20419;-82
2022/08/06 12:52:23;;;;;;;1.53;1.20;;;30.80;1.00;;;;;;5092261;28;20469;-85
2022/08/06 12:54:55;;;;;;;1.73;1.30;;;29.90;1.00;;;;;;5084667;28;20459;-81
2022/08/06 12:57:23;;;;;;;2.00;0.97;;;29.30;1.00;;;;;;5086151;28;20458;-76
2022/08/06 12:59:55;;;;;;;1.33;0.70;;;29.40;1.00;;;;;;5088641;28;20873;-78
2022/08/06 13:02:24;;;;;;;1.43;0.90;;;28.90;1.00;;;;;;5092412;28;20427;-83
2022/08/06 13:04:57;;;;;;;1.57;0.83;;;28.30;1.00;;;;;;5087901;28;20435;-82
2022/08/06 13:07:24;;;;;;;2.70;1.70;;;27.70;1.00;;;;;;5088832;28;20549;-78
2022/08/06 13:09:55;;;;;;;1.50;1.40;;;28.20;1.00;;;;;;5088679;28;20442;-78
2022/08/06 13:12:23;;;;;;;1.10;0.70;;;30.60;1.00;;;;;;5085021;28;20472;-81
2022/08/06 13:14:56;;;;;;;2.80;0.90;;;33.50;1.00;;;;;;5086239;28;20482;-80
2022/08/06 13:17:24;;;;;;;3.33;0.83;;;35.90;1.00;;;;;;5088596;28;21392;-79
2022/08/06 13:19:58;;;;;;;1.10;0.60;;;37.10;1.00;;;;;;5087154;28;20445;-82
2022/08/06 13:22:26;;;;;;;2.17;1.13;;;36.30;1.00;;;;;;5091201;28;21356;-79
2022/08/06 13:25:17;;;;;;;2.20;0.70;;;35.70;1.00;;;;;;5084539;28;20441;-76
2022/08/06 13:27:46;;;;;;;3.13;0.80;;;36.30;1.00;;;;;;5082869;28;20470;-77
2022/08/06 13:30:18;;;;;;;1.30;1.20;;;36.10;1.00;;;;;;5087777;28;20426;-81